Time;durP1;ratioP1;P1;durP2;ratioP2;P2;SDS_P1;SDS_P2;PMS_P1;PMS_P2;Temp;Humidity;BMP_temperature;BMP_pressure;BME280_temperature;BME280_humidity;BME280_pressure;Samples;Min_cycle;Max_cycle;Signal;HPM_P1;HPM_P2
2023/02/25 00:00:18;;;;;;;12.60;2.78;;;;;;;2.64;100.00;99830.91;681068;28;1116;-77
2023/02/25 00:00:39;;;;;;;14.63;2.75;;;;;;;2.63;100.00;99834.34;687177;28;4313;-77
2023/02/25 00:01:07;;;;;;;16.02;2.85;;;;;;;2.59;100.00;99811.94;684630;28;1224;-77
2023/02/25 00:01:31;;;;;;;12.88;2.78;;;;;;;2.66;100.00;99808.56;687647;28;1092;-77
2023/02/25 00:01:54;;;;;;;12.82;3.25;;;;;;;2.66;100.00;99818.00;684981;28;1455;-77
2023/02/25 00:02:15;;;;;;;15.40;3.55;;;;;;;2.76;100.00;99813.88;682010;29;994;-78
2023/02/25 00:02:44;;;;;;;17.25;3.35;;;;;;;2.69;100.00;99802.59;682428;29;1224;-78
2023/02/25 00:03:14;;;;;;;12.93;2.58;;;;;;;2.69;100.00;99829.25;683579;28;1497;-78
2023/02/25 00:03:35;;;;;;;14.05;2.90;;;;;;;2.69;100.00;99812.91;682202;28;1220;-78
2023/02/25 00:04:01;;;;;;;13.65;2.90;;;;;;;2.73;100.00;99832.75;681793;28;4901;-78
2023/02/25 00:04:22;;;;;;;9.98;2.72;;;;;;;2.75;100.00;99827.63;685237;28;1212;-78
2023/02/25 00:04:45;;;;;;;13.05;2.97;;;;;;;2.71;100.00;99798.31;679836;28;1157;-78
2023/02/25 00:05:08;;;;;;;12.15;2.80;;;;;;;2.68;100.00;99822.34;682258;29;1370;-78
2023/02/25 00:05:37;;;;;;;8.95;2.95;;;;;;;2.69;100.00;99802.59;682206;28;1482;-77
2023/02/25 00:06:04;;;;;;;12.43;3.00;;;;;;;2.77;100.00;99816.47;679864;28;2181;-77
2023/02/25 00:06:26;;;;;;;14.00;2.78;;;;;;;2.84;100.00;99810.53;679295;29;1522;-78
2023/02/25 00:06:49;;;;;;;11.95;2.67;;;;;;;2.94;100.00;99818.41;683579;28;4337;-77
2023/02/25 00:07:12;;;;;;;14.55;3.10;;;;;;;2.91;100.00;99829.56;683497;28;1529;-78
2023/02/25 00:07:43;;;;;;;13.45;3.10;;;;;;;2.92;100.00;99807.19;683298;28;1500;-78
2023/02/25 00:08:04;;;;;;;12.43;2.60;;;;;;;2.88;100.00;99804.56;686853;28;1318;-77
2023/02/25 00:08:25;;;;;;;15.13;2.77;;;;;;;2.85;100.00;99834.63;684785;28;1301;-77
2023/02/25 00:08:53;;;;;;;13.60;2.67;;;;;;;2.81;100.00;99804.44;682145;28;1387;-78
2023/02/25 00:09:13;;;;;;;11.93;2.70;;;;;;;2.82;100.00;99806.19;680039;29;1314;-78
2023/02/25 00:09:34;;;;;;;12.48;3.20;;;;;;;2.84;100.00;99832.91;682408;29;1177;-78
2023/02/25 00:09:56;;;;;;;13.05;2.58;;;;;;;2.82;100.00;99817.38;678964;29;4361;-77
2023/02/25 00:10:17;;;;;;;12.20;2.42;;;;;;;2.78;100.00;99832.81;682144;29;1184;-78
2023/02/25 00:10:37;;;;;;;13.20;2.60;;;;;;;2.78;100.00;99807.84;678670;28;1439;-78
2023/02/25 00:10:59;;;;;;;13.32;2.63;;;;;;;2.77;100.00;99810.41;680386;29;1343;-77
2023/02/25 00:11:22;;;;;;;11.63;2.78;;;;;;;2.87;100.00;99809.72;679786;28;1261;-77
2023/02/25 00:11:42;;;;;;;12.95;2.67;;;;;;;2.84;100.00;99814.84;685022;28;1239;-78
2023/02/25 00:12:03;;;;;;;13.93;2.80;;;;;;;2.86;100.00;99831.19;684925;28;1504;-78
2023/02/25 00:12:24;;;;;;;12.07;3.23;;;;;;;2.91;100.00;99829.56;684973;28;898;-78
2023/02/25 00:12:45;;;;;;;12.33;2.73;;;;;;;2.90;100.00;99822.66;682706;28;4340;-78
2023/02/25 00:13:11;;;;;;;11.95;2.70;;;;;;;2.82;100.00;99835.44;682336;29;1240;-77
2023/02/25 00:13:35;;;;;;;11.55;2.58;;;;;;;2.87;100.00;99838.97;679808;29;1268;-78
2023/02/25 00:13:56;;;;;;;11.73;3.00;;;;;;;2.86;100.00;99808.81;681103;29;1418;-78
2023/02/25 00:14:20;;;;;;;14.97;2.60;;;;;;;2.88;100.00;99819.16;683152;28;1252;-77
2023/02/25 00:14:41;;;;;;;14.48;2.72;;;;;;;2.89;100.00;99808.88;683023;28;1196;-77
2023/02/25 00:15:05;;;;;;;14.60;2.72;;;;;;;2.85;100.00;99801.06;680913;29;867;-77
2023/02/25 00:15:25;;;;;;;13.38;3.30;;;;;;;2.85;100.00;99861.31;684731;28;1252;-78
2023/02/25 00:15:51;;;;;;;13.82;3.22;;;;;;;2.80;100.00;99842.31;681791;28;4350;-78
2023/02/25 00:16:16;;;;;;;14.27;3.17;;;;;;;2.78;100.00;99817.31;682640;29;1180;-77
2023/02/25 00:16:37;;;;;;;11.75;3.20;;;;;;;2.71;100.00;99837.91;682713;28;1153;-78
2023/02/25 00:16:57;;;;;;;11.93;2.45;;;;;;;2.69;100.00;99826.69;682642;28;1351;-78
2023/02/25 00:17:18;;;;;;;11.60;2.50;;;;;;;2.74;100.00;99811.25;679524;28;1496;-78
2023/02/25 00:17:45;;;;;;;14.68;2.90;;;;;;;2.78;100.00;99823.34;682318;29;1235;-77
2023/02/25 00:18:06;;;;;;;13.57;3.17;;;;;;;2.86;100.00;99820.88;682211;29;1319;-78
2023/02/25 00:18:32;;;;;;;10.73;2.83;;;;;;;2.92;100.00;99814.91;682346;28;1480;-78
2023/02/25 00:18:54;;;;;;;11.73;2.70;;;;;;;2.87;100.00;99833.81;681704;28;4337;-78
2023/02/25 00:19:14;;;;;;;10.65;2.55;;;;;;;2.86;100.00;99819.16;684621;28;1235;-78
2023/02/25 00:19:35;;;;;;;11.05;2.70;;;;;;;2.88;100.00;99820.06;687690;28;1448;-78
2023/02/25 00:19:56;;;;;;;12.80;2.90;;;;;;;2.83;100.00;99844.94;687511;28;1239;-78
2023/02/25 00:20:21;;;;;;;11.30;2.70;;;;;;;2.79;100.00;99832.84;686845;28;1163;-78
2023/02/25 00:20:45;;;;;;;12.02;2.65;;;;;;;2.88;100.00;99814.88;684872;28;895;-78
2023/02/25 00:21:08;;;;;;;13.20;2.95;;;;;;;2.85;100.00;99829.47;687723;28;1356;-77
2023/02/25 00:21:34;;;;;;;12.18;3.17;;;;;;;2.86;100.00;99847.56;681912;28;1438;-77
2023/02/25 00:22:00;;;;;;;15.10;2.95;;;;;;;2.82;100.00;99814.78;684339;28;4311;-78
2023/02/25 00:22:21;;;;;;;14.55;3.20;;;;;;;2.76;100.00;99824.19;687499;28;1175;-77
2023/02/25 00:22:42;;;;;;;15.50;2.95;;;;;;;2.77;100.00;99836.22;682418;28;1162;-78
2023/02/25 00:23:03;;;;;;;15.50;2.92;;;;;;;2.75;100.00;99825.03;682303;28;1190;-78
2023/02/25 00:23:24;;;;;;;10.57;2.60;;;;;;;2.78;100.00;99813.03;682043;28;954;-77
2023/02/25 00:23:46;;;;;;;12.13;2.85;;;;;;;2.85;100.00;99832.03;681663;28;1355;-78
2023/02/25 00:24:11;;;;;;;12.00;2.75;;;;;;;2.83;100.00;99811.38;679718;28;1903;-78
2023/02/25 00:24:32;;;;;;;13.32;2.88;;;;;;;2.77;100.00;99826.78;681915;28;1435;-78
2023/02/25 00:25:15;;;;;;;11.80;2.97;;;;;;;2.71;100.00;99842.19;682000;28;5026;-78
2023/02/25 00:25:38;;;;;;;11.65;2.80;;;;;;;2.66;100.00;99813.75;684647;28;1331;-78
2023/02/25 00:26:10;;;;;;;15.77;3.03;;;;;;;2.66;100.00;99823.19;685638;28;1157;-78
2023/02/25 00:26:31;;;;;;;12.07;3.38;;;;;;;2.68;100.00;99830.09;686647;28;1477;-78
2023/02/25 00:26:51;;;;;;;11.63;3.10;;;;;;;2.75;100.00;99814.72;690571;28;1397;-78
2023/02/25 00:27:14;;;;;;;14.30;3.10;;;;;;;2.71;100.00;99826.69;687652;28;999;-78
2023/02/25 00:27:37;;;;;;;14.68;3.00;;;;;;;2.69;100.00;99816.34;682219;28;1426;-78
2023/02/25 00:28:04;;;;;;;15.65;3.40;;;;;;;2.67;100.00;99810.31;681586;29;4717;-78
2023/02/25 00:28:26;;;;;;;16.50;3.30;;;;;;;2.66;100.00;99829.22;679083;29;1462;-78
2023/02/25 00:28:55;;;;;;;13.85;3.28;;;;;;;2.77;100.00;99833.66;679942;29;1320;-78
2023/02/25 00:29:17;;;;;;;14.20;3.42;;;;;;;2.70;100.00;99805.19;681093;29;1166;-78
2023/02/25 00:29:39;;;;;;;13.32;3.15;;;;;;;2.66;100.00;99839.53;680455;29;1387;-78
2023/02/25 00:30:01;;;;;;;13.40;3.13;;;;;;;2.63;100.00;99824.03;680752;29;1270;-78
2023/02/25 00:30:30;;;;;;;15.15;3.50;;;;;;;2.60;100.00;99838.59;682547;28;1273;-78
2023/02/25 00:30:54;;;;;;;16.35;3.70;;;;;;;2.71;100.00;99806.06;681946;28;4493;-78
2023/02/25 00:31:24;;;;;;;15.88;3.83;;;;;;;2.72;100.00;99828.44;680969;28;1181;-78
2023/02/25 00:31:46;;;;;;;12.93;3.17;;;;;;;2.72;100.00;99843.94;682486;28;1265;-78
2023/02/25 00:32:06;;;;;;;14.77;3.30;;;;;;;2.70;100.00;99818.09;681530;29;1063;-78
2023/02/25 00:32:27;;;;;;;15.27;3.30;;;;;;;2.63;100.00;99813.72;680192;29;1150;-78
2023/02/25 00:32:57;;;;;;;16.15;3.65;;;;;;;2.75;100.00;99804.38;684100;28;1371;-78
2023/02/25 00:33:26;;;;;;;14.48;3.70;;;;;;;2.77;100.00;99842.28;685131;28;1128;-79
2023/02/25 00:33:51;;;;;;;17.05;3.83;;;;;;;2.80;100.00;99828.56;679955;28;4376;-78
2023/02/25 00:34:12;;;;;;;14.88;3.88;;;;;;;2.79;100.00;99807.00;684048;28;1512;-79
2023/02/25 00:34:36;;;;;;;12.93;3.80;;;;;;;2.75;100.00;99807.81;685536;28;1129;-78
2023/02/25 00:34:56;;;;;;;13.32;3.55;;;;;;;2.72;100.00;99808.66;687561;28;1474;-78
2023/02/25 00:35:25;;;;;;;13.20;3.50;;;;;;;2.68;100.00;99806.00;688475;28;1192;-79
2023/02/25 00:35:48;;;;;;;13.07;3.70;;;;;;;2.65;100.00;99824.91;684274;28;1409;-78
2023/02/25 00:36:19;;;;;;;13.88;3.80;;;;;;;2.64;100.00;99830.91;685572;28;1263;-78
2023/02/25 00:36:42;;;;;;;12.73;3.63;;;;;;;2.62;100.00;99806.81;683523;28;1423;-78
2023/02/25 00:37:03;;;;;;;12.02;3.92;;;;;;;2.65;100.00;99814.56;687486;28;5667;-78
2023/02/25 00:37:27;;;;;;;12.40;3.42;;;;;;;2.65;100.00;99806.84;684492;28;1261;-78
2023/02/25 00:37:50;;;;;;;12.13;3.30;;;;;;;2.64;100.00;99828.31;684928;28;1223;-79
2023/02/25 00:38:14;;;;;;;13.18;3.85;;;;;;;2.63;100.00;99817.97;683785;28;1476;-78
2023/02/25 00:38:38;;;;;;;13.63;4.18;;;;;;;2.61;100.00;99806.78;683303;28;1339;-78
2023/02/25 00:39:02;;;;;;;13.60;3.85;;;;;;;2.71;100.00;99827.59;679854;29;1398;-78
2023/02/25 00:39:23;;;;;;;17.48;4.65;;;;;;;2.69;100.00;99820.66;679475;29;976;-78
2023/02/25 00:39:48;;;;;;;15.50;4.17;;;;;;;2.67;100.00;99810.31;681063;29;4463;-77
2023/02/25 00:40:13;;;;;;;16.90;4.40;;;;;;;2.66;100.00;99818.00;681415;29;1399;-77
2023/02/25 00:40:43;;;;;;;17.83;4.30;;;;;;;2.71;100.00;99814.69;684589;28;1324;-77
2023/02/25 00:41:10;;;;;;;17.25;3.95;;;;;;;2.68;100.00;99806.88;686543;28;1221;-78
2023/02/25 00:41:38;;;;;;;14.27;4.25;;;;;;;2.72;100.00;99837.03;684338;28;1316;-78
2023/02/25 00:42:00;;;;;;;13.43;4.07;;;;;;;2.71;100.00;99829.28;680356;29;1225;-77
2023/02/25 00:42:21;;;;;;;12.57;4.35;;;;;;;2.70;100.00;99835.28;681688;28;1383;-78
2023/02/25 00:42:44;;;;;;;12.90;4.28;;;;;;;2.67;100.00;99833.53;677358;29;4362;-78
2023/02/25 00:43:08;;;;;;;12.90;4.13;;;;;;;2.66;100.00;99808.56;679150;29;1179;-78
2023/02/25 00:43:29;;;;;;;12.50;3.93;;;;;;;2.64;100.00;99828.31;679562;29;1058;-78
2023/02/25 00:43:58;;;;;;;11.98;3.88;;;;;;;2.63;100.00;99833.47;678942;29;1363;-78
2023/02/25 00:44:26;;;;;;;14.88;4.72;;;;;;;2.64;100.00;99838.63;679210;29;1459;-78
2023/02/25 00:44:50;;;;;;;15.00;4.45;;;;;;;2.62;100.00;99816.28;679798;29;1228;-78
2023/02/25 00:45:24;;;;;;;;;;;;;;;;;;;;;
2023/02/25 00:45:47;;;;;;;13.30;4.47;;;;;;;2.54;100.00;99841.94;681382;28;4362;-78
2023/02/25 00:46:09;;;;;;;17.50;4.13;;;;;;;2.55;100.00;99835.94;682686;29;1331;-78
2023/02/25 00:46:31;;;;;;;17.02;3.85;;;;;;;2.57;100.00;99835.97;685010;28;1092;-78
2023/02/25 00:46:54;;;;;;;15.00;3.97;;;;;;;2.56;100.00;99819.59;682118;28;1244;-78
2023/02/25 00:47:17;;;;;;;14.57;3.70;;;;;;;2.53;100.00;99817.88;681535;28;1263;-78
2023/02/25 00:47:38;;;;;;;13.60;4.15;;;;;;;2.60;100.00;99807.63;681027;28;1422;-78
2023/02/25 00:47:59;;;;;;;13.43;3.67;;;;;;;2.60;100.00;99805.91;682220;28;1182;-78
2023/02/25 00:48:22;;;;;;;13.95;3.60;;;;;;;2.66;100.00;99826.66;682079;29;930;-78
2023/02/25 00:48:45;;;;;;;14.27;3.45;;;;;;;2.67;100.00;99840.41;687053;28;4422;-78
2023/02/25 00:49:06;;;;;;;15.57;3.63;;;;;;;2.69;100.00;99820.66;684932;28;1318;-79
2023/02/25 00:49:27;;;;;;;14.55;3.55;;;;;;;2.64;100.00;99805.09;684658;28;1319;-78
2023/02/25 00:49:47;;;;;;;14.07;3.67;;;;;;;2.65;100.00;99827.47;685707;28;1221;-78
2023/02/25 00:50:09;;;;;;;14.82;3.85;;;;;;;2.67;100.00;99841.28;685226;28;1464;-78
2023/02/25 00:50:30;;;;;;;13.27;3.67;;;;;;;2.63;100.00;99828.31;689320;28;1284;-78
2023/02/25 00:50:51;;;;;;;15.13;4.05;;;;;;;2.68;100.00;99824.94;687684;28;1197;-78
2023/02/25 00:51:16;;;;;;;16.92;4.35;;;;;;;2.69;100.00;99803.44;687421;28;1483;-79
2023/02/25 00:51:38;;;;;;;13.23;3.40;;;;;;;2.65;100.00;99812.00;687716;28;1274;-78
2023/02/25 00:51:59;;;;;;;14.95;3.60;;;;;;;2.65;100.00;99804.25;681847;29;4594;-78
2023/02/25 00:52:19;;;;;;;15.20;4.00;;;;;;;2.65;100.00;99826.63;682402;28;1327;-78
2023/02/25 00:52:40;;;;;;;14.70;4.55;;;;;;;2.68;100.00;99806.88;679522;29;1252;-79
2023/02/25 00:53:01;;;;;;;17.17;4.22;;;;;;;2.64;100.00;99820.56;682331;29;1198;-78
2023/02/25 00:53:22;;;;;;;15.70;3.90;;;;;;;2.65;100.00;99827.47;684088;28;1301;-79
2023/02/25 00:53:48;;;;;;;14.63;4.03;;;;;;;2.57;100.00;99823.94;680861;28;1497;-79
2023/02/25 00:54:12;;;;;;;13.82;3.83;;;;;;;2.55;100.00;99825.63;683773;28;1470;-78
2023/02/25 00:54:34;;;;;;;13.80;3.78;;;;;;;2.55;100.00;99821.31;687079;28;1387;-78
2023/02/25 00:54:56;;;;;;;14.25;3.85;;;;;;;2.72;100.00;99800.91;683952;28;4399;-78
2023/02/25 00:55:17;;;;;;;14.83;3.87;;;;;;;2.71;100.00;99793.16;684421;28;1467;-78
2023/02/25 00:55:41;;;;;;;15.55;3.50;;;;;;;2.68;100.00;99819.78;686736;28;1200;-78
2023/02/25 00:56:02;;;;;;;15.48;3.88;;;;;;;2.62;100.00;99817.13;684514;28;1315;-78
2023/02/25 00:56:26;;;;;;;16.05;4.32;;;;;;;2.58;100.00;99830.81;682392;28;1342;-78
2023/02/25 00:56:47;;;;;;;14.43;3.80;;;;;;;2.60;100.00;99817.94;684538;28;1417;-78
2023/02/25 00:57:10;;;;;;;14.25;3.67;;;;;;;2.55;100.00;99812.72;684746;28;1607;-78
2023/02/25 00:57:32;;;;;;;13.13;3.83;;;;;;;2.63;100.00;99797.34;682262;28;1381;-78
2023/02/25 00:57:52;;;;;;;14.32;3.70;;;;;;;2.68;100.00;99809.44;681572;28;4430;-78
2023/02/25 00:58:24;;;;;;;15.40;3.60;;;;;;;2.62;100.00;99826.59;684607;28;1426;-78
2023/02/25 00:59:05;;;;;;;14.10;3.70;;;;;;;2.60;100.00;99820.53;681853;28;1080;-78
2023/02/25 00:59:27;;;;;;;12.15;3.72;;;;;;;2.59;100.00;99826.53;683601;28;1086;-78
2023/02/25 00:59:54;;;;;;;10.70;3.87;;;;;;;2.65;100.00;99806.84;681423;28;1406;-78
2023/02/25 01:00:15;;;;;;;13.90;3.75;;;;;;;2.60;100.00;99803.31;684022;28;1054;-78
2023/02/25 01:00:36;;;;;;;13.43;3.75;;;;;;;2.57;100.00;99818.75;684047;28;1156;-78
2023/02/25 01:00:57;;;;;;;13.88;3.65;;;;;;;2.57;100.00;99802.44;683755;28;4323;-78
2023/02/25 01:01:32;;;;;;;14.05;4.13;;;;;;;2.57;100.00;99802.44;683121;28;975;-79
2023/02/25 01:01:55;;;;;;;14.48;3.85;;;;;;;2.59;100.00;99817.09;681985;29;1418;-78
2023/02/25 01:02:18;;;;;;;14.57;3.88;;;;;;;2.57;100.00;99812.75;681693;28;1124;-78
2023/02/25 01:02:44;;;;;;;13.15;3.67;;;;;;;2.58;100.00;99825.66;679864;29;1331;-77
2023/02/25 01:03:04;;;;;;;13.60;4.00;;;;;;;2.59;100.00;99800.72;677482;29;1094;-77
2023/02/25 01:03:26;;;;;;;12.90;3.45;;;;;;;2.55;100.00;99798.09;682019;28;1307;-77
2023/02/25 01:03:51;;;;;;;14.82;3.70;;;;;;;2.58;100.00;99817.94;684158;28;4548;-77
2023/02/25 01:04:12;;;;;;;12.32;3.70;;;;;;;2.57;100.00;99828.22;686124;28;1931;-79
2023/02/25 01:04:33;;;;;;;12.38;3.67;;;;;;;2.55;100.00;99794.66;686981;28;1379;-79
2023/02/25 01:04:56;;;;;;;13.30;3.83;;;;;;;2.59;100.00;99822.25;680989;29;1446;-78
2023/02/25 01:05:20;;;;;;;12.75;3.85;;;;;;;2.68;100.00;99824.94;678353;29;1327;-76
2023/02/25 01:05:48;;;;;;;12.43;4.07;;;;;;;2.63;100.00;99826.59;678167;29;1340;-78
2023/02/25 01:06:09;;;;;;;13.23;3.80;;;;;;;2.61;100.00;99805.06;679403;29;1218;-77
2023/02/25 01:06:31;;;;;;;15.93;4.07;;;;;;;2.58;100.00;99815.34;679711;29;1666;-78
2023/02/25 01:07:03;;;;;;;13.93;4.10;;;;;;;2.62;100.00;99837.78;684463;28;4699;-79
2023/02/25 01:07:26;;;;;;;12.35;3.60;;;;;;;2.60;100.00;99829.13;683667;28;1275;-77
2023/02/25 01:07:52;;;;;;;13.48;3.90;;;;;;;2.65;100.00;99836.94;684947;28;1370;-77
2023/02/25 01:08:17;;;;;;;13.15;4.30;;;;;;;2.59;100.00;99803.31;687043;28;905;-77
2023/02/25 01:08:38;;;;;;;12.57;3.63;;;;;;;2.61;100.00;99828.28;687815;28;1271;-78
2023/02/25 01:08:59;;;;;;;13.53;4.00;;;;;;;2.56;100.00;99829.91;682792;28;1240;-77
2023/02/25 01:09:20;;;;;;;13.20;4.10;;;;;;;2.58;100.00;99806.75;683160;28;1364;-77
2023/02/25 01:09:56;;;;;;;13.10;3.70;;;;;;;2.61;100.00;99806.78;680583;28;4419;-78
2023/02/25 01:10:28;;;;;;;13.73;4.00;;;;;;;2.59;100.00;99804.19;682019;29;1439;-77
2023/02/25 01:10:49;;;;;;;14.95;4.13;;;;;;;2.60;100.00;99800.72;685571;28;1291;-77
2023/02/25 01:11:19;;;;;;;16.67;4.35;;;;;;;2.64;100.00;99841.22;685946;28;1406;-77
2023/02/25 01:11:46;;;;;;;13.70;3.70;;;;;;;2.59;100.00;99827.41;684833;28;1346;-77
2023/02/25 01:12:07;;;;;;;13.75;3.72;;;;;;;2.55;100.00;99823.06;685682;28;1652;-77
2023/02/25 01:12:28;;;;;;;17.70;3.83;;;;;;;2.53;100.00;99827.31;684543;28;1478;-77
2023/02/25 01:12:49;;;;;;;16.40;4.57;;;;;;;2.50;100.00;99832.44;686048;28;4295;-77
2023/02/25 01:13:16;;;;;;;11.60;3.90;;;;;;;2.48;100.00;99831.53;682061;28;1475;-77
2023/02/25 01:13:37;;;;;;;11.98;3.42;;;;;;;2.54;100.00;99842.81;681261;28;1546;-77
2023/02/25 01:14:03;;;;;;;13.40;3.60;;;;;;;2.56;100.00;99806.69;682448;28;1256;-77
2023/02/25 01:14:28;;;;;;;12.05;3.65;;;;;;;2.55;100.00;99820.47;684185;28;1322;-77
2023/02/25 01:14:50;;;;;;;14.60;3.88;;;;;;;2.61;100.00;99805.06;683984;28;1366;-78
2023/02/25 01:15:16;;;;;;;13.25;3.83;;;;;;;2.59;100.00;99806.75;683823;28;1407;-77
2023/02/25 01:15:40;;;;;;;15.57;3.97;;;;;;;2.62;100.00;99811.97;687202;28;1384;-77
2023/02/25 01:16:08;;;;;;;13.43;4.25;;;;;;;2.63;100.00;99824.03;684034;28;5111;-77
2023/02/25 01:16:34;;;;;;;12.40;3.60;;;;;;;2.66;100.00;99803.41;684197;28;3464;-77
2023/02/25 01:16:56;;;;;;;14.45;3.83;;;;;;;2.65;100.00;99805.97;679493;29;1414;-77
2023/02/25 01:17:17;;;;;;;11.05;3.63;;;;;;;2.65;100.00;99832.63;682797;28;1299;-77
2023/02/25 01:17:38;;;;;;;11.43;3.67;;;;;;;2.67;100.00;99812.91;681919;28;1434;-77
2023/02/25 01:17:58;;;;;;;13.00;3.53;;;;;;;2.66;100.00;99838.66;679428;29;1252;-78
2023/02/25 01:18:23;;;;;;;13.68;3.47;;;;;;;2.63;100.00;99812.81;679061;29;970;-77
2023/02/25 01:18:51;;;;;;;13.00;3.60;;;;;;;2.60;100.00;99836.88;683793;28;4353;-77
2023/02/25 01:19:17;;;;;;;9.93;3.22;;;;;;;2.59;100.00;99811.03;679536;29;1410;-77
2023/02/25 01:19:40;;;;;;;12.05;3.83;;;;;;;2.68;100.00;99847.31;680798;28;1329;-77
2023/02/25 01:20:10;;;;;;;15.27;3.72;;;;;;;2.65;100.00;99806.84;687319;28;1237;-78
2023/02/25 01:20:31;;;;;;;16.23;3.95;;;;;;;2.65;100.00;99858.44;679505;29;1310;-78
2023/02/25 01:20:55;;;;;;;16.42;3.90;;;;;;;2.75;100.00;99806.97;679194;29;1015;-78
2023/02/25 01:21:24;;;;;;;13.34;3.86;;;;;;;2.73;100.00;99815.56;684337;28;1355;-78
2023/02/25 01:21:58;;;;;;;11.27;3.53;;;;;;;2.62;100.00;99835.19;683116;28;4433;-79
2023/02/25 01:22:19;;;;;;;14.25;3.47;;;;;;;2.67;100.00;99812.91;685108;28;1376;-78
2023/02/25 01:22:42;;;;;;;13.93;4.50;;;;;;;2.62;100.00;99845.50;684208;28;1358;-78
2023/02/25 01:23:03;;;;;;;14.15;4.20;;;;;;;2.67;100.00;99845.56;686199;28;1317;-78
2023/02/25 01:23:31;;;;;;;13.18;3.60;;;;;;;2.66;100.00;99829.22;687413;28;1252;-78
2023/02/25 01:24:00;;;;;;;13.82;3.45;;;;;;;2.62;100.00;99847.22;687176;28;1481;-78
2023/02/25 01:24:25;;;;;;;11.77;3.45;;;;;;;2.60;100.00;99813.63;689702;28;1227;-78
2023/02/25 01:24:48;;;;;;;12.35;3.85;;;;;;;2.59;100.00;99819.66;683578;28;4355;-78
2023/02/25 01:25:14;;;;;;;12.52;3.90;;;;;;;2.55;100.00;99805.84;686906;28;1493;-79
2023/02/25 01:25:39;;;;;;;13.05;3.90;;;;;;;2.48;100.00;99827.25;689941;28;1230;-78
2023/02/25 01:26:07;;;;;;;11.88;3.53;;;;;;;2.51;100.00;99821.28;687737;28;1532;-76
2023/02/25 01:26:34;;;;;;;13.00;3.50;;;;;;;2.55;100.00;99810.16;681919;28;1514;-79
2023/02/25 01:27:02;;;;;;;14.77;3.28;;;;;;;2.57;100.00;99823.06;681871;28;1169;-78
2023/02/25 01:27:22;;;;;;;13.73;3.03;;;;;;;2.57;100.00;99834.25;683756;28;1187;-78
2023/02/25 01:27:44;;;;;;;11.05;3.30;;;;;;;2.60;100.00;99817.94;682173;28;4303;-79
2023/02/25 01:28:05;;;;;;;12.98;3.63;;;;;;;2.68;100.00;99818.91;687596;28;1255;-78
2023/02/25 01:28:29;;;;;;;11.30;3.35;;;;;;;2.66;100.00;99826.66;684778;28;1399;-78
2023/02/25 01:28:50;;;;;;;12.68;3.80;;;;;;;2.69;100.00;99807.75;682303;28;1410;-78
2023/02/25 01:29:14;;;;;;;13.90;4.35;;;;;;;2.73;100.00;99836.19;682753;29;1458;-78
2023/02/25 01:29:42;;;;;;;13.80;3.40;;;;;;;2.73;100.00;99836.19;681227;29;1305;-78
2023/02/25 01:30:07;;;;;;;10.73;3.20;;;;;;;2.70;100.00;99823.25;686973;28;1393;-78
2023/02/25 01:30:27;;;;;;;11.50;3.25;;;;;;;2.66;100.00;99810.28;686651;28;1188;-78
2023/02/25 01:30:50;;;;;;;11.13;3.10;;;;;;;2.61;100.00;99838.59;689412;28;4338;-79
2023/02/25 01:31:30;;;;;;;11.13;3.17;;;;;;;2.63;100.00;99805.97;684505;28;1425;-79
2023/02/25 01:31:52;;;;;;;11.68;3.08;;;;;;;2.62;100.00;99848.09;683097;28;1137;-79
2023/02/25 01:32:14;;;;;;;10.88;3.05;;;;;;;2.59;100.00;99811.94;680140;29;1298;-78
2023/02/25 01:32:34;;;;;;;14.77;3.63;;;;;;;2.57;100.00;99808.44;681625;29;1272;-78
2023/02/25 01:33:00;;;;;;;12.35;3.15;;;;;;;2.52;100.00;99851.38;682218;28;1274;-78
2023/02/25 01:33:21;;;;;;;11.57;3.20;;;;;;;2.49;100.00;99830.69;684071;28;1133;-78
2023/02/25 01:33:42;;;;;;;11.70;3.38;;;;;;;2.50;100.00;99832.44;685769;28;4351;-78
2023/02/25 01:34:05;;;;;;;12.32;3.70;;;;;;;2.46;100.00;99815.16;684448;28;1406;-78
2023/02/25 01:34:30;;;;;;;11.48;3.40;;;;;;;2.43;100.00;99833.19;684597;28;1302;-78
2023/02/25 01:34:55;;;;;;;12.25;3.35;;;;;;;2.49;100.00;99810.94;687924;28;1104;-78
2023/02/25 01:35:21;;;;;;;9.82;3.40;;;;;;;2.50;100.00;99843.59;682016;29;1224;-79
2023/02/25 01:35:46;;;;;;;10.80;3.35;;;;;;;2.55;100.00;99816.16;681990;28;1421;-78
2023/02/25 01:36:10;;;;;;;13.30;3.20;;;;;;;2.63;100.00;99816.28;685014;28;1241;-79
2023/02/25 01:36:39;;;;;;;13.77;3.50;;;;;;;2.54;100.00;99844.53;687151;28;1084;-78
2023/02/25 01:37:06;;;;;;;14.90;3.88;;;;;;;2.52;100.00;99838.47;686694;28;4912;-78
2023/02/25 01:37:29;;;;;;;10.35;3.20;;;;;;;2.49;100.00;99853.91;689604;28;1424;-79
2023/02/25 01:37:51;;;;;;;12.10;3.40;;;;;;;2.51;100.00;99824.72;687333;28;1393;-79
2023/02/25 01:38:14;;;;;;;10.98;3.00;;;;;;;2.51;100.00;99813.53;682318;28;1410;-78
2023/02/25 01:38:38;;;;;;;12.00;3.20;;;;;;;2.48;100.00;99854.75;684426;28;1539;-78
2023/02/25 01:39:02;;;;;;;9.47;3.10;;;;;;;2.46;100.00;99818.59;682091;28;1241;-79
2023/02/25 01:39:27;;;;;;;14.13;3.50;;;;;;;2.52;100.00;99833.31;678876;29;1333;-78
2023/02/25 01:39:48;;;;;;;12.38;3.25;;;;;;;2.51;100.00;99814.38;677153;29;4323;-78
2023/02/25 01:40:16;;;;;;;12.52;3.38;;;;;;;2.48;100.00;99823.78;678106;29;1347;-79
2023/02/25 01:40:37;;;;;;;10.88;3.25;;;;;;;2.48;100.00;99810.88;681842;28;1161;-78
2023/02/25 01:41:02;;;;;;;10.67;3.20;;;;;;;2.44;100.00;99833.22;681881;29;1415;-79
2023/02/25 01:41:24;;;;;;;11.10;3.30;;;;;;;2.44;100.00;99816.84;681319;28;1337;-78
2023/02/25 01:41:52;;;;;;;11.75;3.45;;;;;;;2.43;100.00;99828.88;681225;29;1444;-79
2023/02/25 01:42:15;;;;;;;15.00;3.70;;;;;;;2.38;100.00;99839.16;681632;28;1316;-78
2023/02/25 01:42:35;;;;;;;9.88;2.95;;;;;;;2.56;100.00;99824.75;684652;28;1326;-79
2023/02/25 01:42:56;;;;;;;12.20;3.28;;;;;;;2.55;100.00;99860.03;682689;28;4277;-78
2023/02/25 01:43:17;;;;;;;13.13;3.28;;;;;;;2.58;100.00;99822.22;681648;29;1142;-78
2023/02/25 01:43:40;;;;;;;16.75;3.22;;;;;;;2.57;100.00;99831.66;681224;29;1217;-78
2023/02/25 01:44:16;;;;;;;17.40;3.28;;;;;;;2.52;100.00;99836.78;683293;28;2044;-79
2023/02/25 01:45:09;;;;;;;10.95;2.95;;;;;;;2.43;100.00;99816.00;681726;28;1438;-78
2023/02/25 01:45:31;;;;;;;12.32;3.05;;;;;;;2.45;100.00;99828.91;685728;28;1320;-78
2023/02/25 01:45:53;;;;;;;13.50;3.63;;;;;;;2.44;100.00;99838.38;685107;28;4433;-78
2023/02/25 01:46:14;;;;;;;15.20;3.47;;;;;;;2.49;100.00;99830.69;684669;28;1263;-78
2023/02/25 01:46:36;;;;;;;12.47;3.10;;;;;;;2.54;100.00;99823.88;686742;28;1338;-79
2023/02/25 01:46:57;;;;;;;12.65;3.30;;;;;;;2.52;100.00;99838.47;685546;28;1221;-79
2023/02/25 01:47:23;;;;;;;14.85;3.25;;;;;;;2.48;100.00;99823.78;686815;28;1178;-79
2023/02/25 01:48:04;;;;;;;11.32;3.17;;;;;;;2.46;100.00;99804.84;686411;28;1385;-78
2023/02/25 01:48:33;;;;;;;10.55;3.08;;;;;;;2.50;100.00;99828.13;687396;28;1209;-78
2023/02/25 01:48:57;;;;;;;10.35;3.00;;;;;;;2.51;100.00;99829.00;675913;28;4371;-79
2023/02/25 01:49:44;;;;;;;11.60;3.00;;;;;;;2.50;100.00;99812.63;689149;28;1354;-79
2023/02/25 01:50:06;;;;;;;12.30;2.80;;;;;;;2.43;100.00;99820.28;685541;28;1425;-80
2023/02/25 01:50:34;;;;;;;13.38;3.08;;;;;;;2.47;100.00;99856.47;682671;28;1470;-79
2023/02/25 01:51:15;;;;;;;12.13;3.15;;;;;;;2.50;100.00;99814.38;678552;28;1462;-78
2023/02/25 01:51:43;;;;;;;12.70;3.20;;;;;;;2.61;100.00;99833.44;679175;29;1328;-79
2023/02/25 01:52:18;;;;;;;10.25;2.42;;;;;;;2.64;100.00;99810.25;678687;29;6164;-78
2023/02/25 01:52:40;;;;;;;12.05;2.90;;;;;;;2.56;100.00;99840.25;678747;29;1256;-78
2023/02/25 01:53:03;;;;;;;11.68;3.05;;;;;;;2.58;100.00;99835.13;676470;29;1450;-78
2023/02/25 01:53:32;;;;;;;12.38;3.38;;;;;;;2.60;100.00;99816.22;679860;29;1267;-78
2023/02/25 01:53:55;;;;;;;9.80;2.75;;;;;;;2.66;100.00;99811.16;684774;28;900;-78
2023/02/25 01:54:20;;;;;;;11.40;2.78;;;;;;;2.68;100.00;99830.09;687379;28;984;-78
2023/02/25 01:54:50;;;;;;;12.77;3.10;;;;;;;2.68;100.00;99827.50;687158;28;4331;-79
2023/02/25 01:55:12;;;;;;;10.82;2.92;;;;;;;2.66;100.00;99849.88;688080;28;1381;-78
2023/02/25 01:55:36;;;;;;;9.00;2.83;;;;;;;2.60;100.00;99854.06;687772;28;1383;-78
2023/02/25 01:55:58;;;;;;;10.15;2.80;;;;;;;2.56;100.00;99819.59;681732;29;1384;-79
2023/02/25 01:56:24;;;;;;;13.73;3.47;;;;;;;2.52;100.00;99816.13;678814;28;1250;-79